MET'MAP v2.0
soon released !

Expected late october,
this new version will be
more efficient, smarter,
and hosted on a brand new
server x3 powerfull...
...and still free !


Not compatible ?
Try the mobile version !

LOG IN : | Subscribe | Disclaimer | Who is Orbifly ? |
ICAO code :

TAF - LFQB Troyes Barberey - 29 Feb 2020 14:24 UTC
Data Sources :     NOAA   


- Airport Elevation : 388 ft
- IATA code : QYR
- No reported NOTAMs.


LFQB - Troyes Barberey

Latest METAR recorded : 2020/02/29 13:00 LFQB 291300Z AUTO 23025KT 9999 FEW034 SCT043 BKN056 11/07 Q0995
NO TAF


MET'MAP, your aeronautical weather chart ! - Copyright ORBIFLY December 2007

Programming & Development : Alexandra Zaïnal
Co-Developer : Marc-Olivier Méhu
Technical & hardware support : Manuel Goepfert
Concept & Financing : Baudouin d'Aumeries